Time;durP1;ratioP1;P1;durP2;ratioP2;P2;SDS_P1;SDS_P2;PMS_P1;PMS_P2;Temp;Humidity;BMP_temperature;BMP_pressure;BME280_temperature;BME280_humidity;BME280_pressure;Samples;Min_cycle;Max_cycle;Signal;HPM_P1;HPM_P2
2023/12/09 00:00:12;;;;;;;10.70;4.90;;;;;;;6.37;69.44;101334.33;106338;1257;60523;-87
2023/12/09 00:02:47;;;;;;;9.90;4.20;;;;;;;6.06;71.39;101342.27;106344;1254;60404;-86
2023/12/09 00:05:20;;;;;;;6.40;4.20;;;;;;;6.02;71.91;101342.02;106320;1257;73881;-86
2023/12/09 00:07:48;;;;;;;7.60;4.40;;;;;;;6.05;72.28;101340.50;106481;1253;67748;-83
2023/12/09 00:10:22;;;;;;;8.00;4.20;;;;;;;6.01;72.62;101340.14;106248;1254;71693;-87
2023/12/09 00:12:56;;;;;;;6.60;3.50;;;;;;;6.05;72.67;101342.67;106412;1254;60875;-86
2023/12/09 00:15:29;;;;;;;7.30;4.00;;;;;;;6.07;72.07;101345.60;106662;1253;60409;-83
2023/12/09 00:17:57;;;;;;;10.00;5.10;;;;;;;6.08;71.90;101343.89;106274;1256;73846;-83
2023/12/09 00:20:31;;;;;;;9.60;4.80;;;;;;;6.12;72.02;101339.61;106221;1253;68210;-86
2023/12/09 00:23:06;;;;;;;7.80;4.30;;;;;;;6.23;71.19;101336.39;106216;1253;72438;-86
2023/12/09 00:25:43;;;;;;;7.80;4.50;;;;;;;6.28;70.27;101336.02;106697;1255;60461;-87
2023/12/09 00:28:11;;;;;;;8.10;4.50;;;;;;;6.39;69.59;101329.54;106508;1254;61102;-83
2023/12/09 08:29:50;;;;;;;16.30;7.30;;;;;;;6.75;63.67;101418.41;106498;1253;60433;-83
2023/12/09 08:32:30;;;;;;;19.00;8.30;;;;;;;6.73;62.93;101420.41;106432;1253;73994;-83
2023/12/09 08:35:12;;;;;;;19.60;8.80;;;;;;;6.71;62.78;101417.96;106682;1253;67603;-82
2023/12/09 08:37:51;;;;;;;13.70;7.20;;;;;;;6.75;62.48;101412.27;106324;1252;71483;-82
2023/12/09 08:40:31;;;;;;;17.70;7.70;;;;;;;6.80;62.99;101408.94;106399;1253;60531;-83
2023/12/09 08:43:11;;;;;;;19.90;9.60;;;;;;;6.81;63.17;101408.20;106579;1256;60329;-82
2023/12/09 08:45:51;;;;;;;19.50;9.40;;;;;;;6.88;63.29;101408.39;106413;1253;73012;-85
2023/12/09 08:48:30;;;;;;;13.90;7.20;;;;;;;6.98;62.82;101407.05;106327;1254;67931;-84
2023/12/09 08:51:10;;;;;;;15.40;8.60;;;;;;;6.96;61.83;101402.00;106413;1254;72709;-82
2023/12/09 08:53:50;;;;;;;16.70;9.00;;;;;;;6.87;61.97;101400.13;106278;1254;60981;-82
2023/12/09 08:56:31;;;;;;;17.20;8.50;;;;;;;6.79;62.69;101397.74;106295;1254;61020;-82
2023/12/09 08:59:11;;;;;;;15.10;8.00;;;;;;;6.78;62.52;101398.50;106668;1254;72626;-85
2023/12/09 09:01:51;;;;;;;12.90;7.00;;;;;;;6.85;62.34;101399.33;106449;1256;68340;-85
2023/12/09 09:04:31;;;;;;;14.80;8.20;;;;;;;6.95;61.32;101395.55;106689;1257;71616;-85
2023/12/09 09:07:11;;;;;;;18.90;9.60;;;;;;;6.90;61.22;101395.77;106255;1257;60462;-85
2023/12/09 09:09:51;;;;;;;20.10;10.00;;;;;;;6.69;62.73;101395.71;106362;1254;60591;-83
2023/12/09 09:12:31;;;;;;;17.60;8.80;;;;;;;6.76;62.80;101393.02;106417;1256;74144;-82
2023/12/09 09:15:12;;;;;;;16.00;8.90;;;;;;;6.64;63.00;101387.97;106400;1254;67593;-82
2023/12/09 09:17:52;;;;;;;22.80;9.90;;;;;;;6.49;63.81;101392.72;106226;1254;70453;-85
2023/12/09 09:20:32;;;;;;;19.40;9.50;;;;;;;6.49;63.94;101391.46;106355;1254;60475;-85
2023/12/09 09:23:12;;;;;;;22.30;11.70;;;;;;;6.55;63.83;101383.54;106597;1254;60390;-85
2023/12/09 09:25:52;;;;;;;19.10;9.40;;;;;;;6.64;63.27;101383.98;106365;1257;73567;-86
2023/12/09 09:28:32;;;;;;;20.70;9.70;;;;;;;6.67;63.33;101383.41;106351;1257;68374;-86
2023/12/09 09:31:12;;;;;;;21.10;11.00;;;;;;;6.68;62.82;101379.02;106305;1254;72423;-85
2023/12/09 09:33:51;;;;;;;17.30;8.70;;;;;;;6.64;62.61;101370.85;106521;1254;60487;-86
2023/12/09 09:36:32;;;;;;;17.80;9.10;;;;;;;6.60;62.45;101362.05;106318;1254;60469;-86
2023/12/09 09:39:12;;;;;;;16.10;8.40;;;;;;;6.58;62.67;101360.70;106710;1253;72390;-86
2023/12/09 09:42:06;;;;;;;14.50;8.00;;;;;;;6.54;62.95;101351.19;106669;1254;68647;-83
2023/12/09 09:44:53;;;;;;;18.70;9.70;;;;;;;6.57;62.43;101348.94;106231;1254;72463;-83
2023/12/09 09:47:36;;;;;;;18.30;9.10;;;;;;;6.58;62.37;101349.08;106135;1254;60438;-83
2023/12/09 09:50:16;;;;;;;19.70;8.50;;;;;;;6.59;62.62;101343.08;106397;1254;60438;-83
2023/12/09 09:52:52;;;;;;;15.70;8.60;;;;;;;6.59;62.83;101338.67;106262;1258;73931;-83
2023/12/09 09:55:28;;;;;;;18.50;8.70;;;;;;;6.58;62.37;101329.85;106316;1254;68338;-83
2023/12/09 09:58:03;;;;;;;18.60;8.00;;;;;;;6.63;62.08;101322.96;106278;1254;71309;-83
2023/12/09 10:00:39;;;;;;;15.50;7.10;;;;;;;6.69;61.87;101312.86;106357;1258;60505;-86
2023/12/09 10:03:14;;;;;;;17.00;8.20;;;;;;;6.61;61.76;101317.60;106467;1254;60425;-86
2023/12/09 10:05:53;;;;;;;17.60;8.80;;;;;;;6.59;61.64;101317.22;106231;1254;72686;-86
2023/12/09 10:08:29;;;;;;;18.30;9.80;;;;;;;6.61;62.16;101317.70;106554;1258;67249;-86
2023/12/09 10:11:05;;;;;;;17.90;8.70;;;;;;;6.73;61.51;101315.52;106255;1254;71937;-88
2023/12/09 10:13:41;;;;;;;15.70;9.00;;;;;;;6.76;61.30;101311.20;106338;1254;61322;-87
2023/12/09 10:16:14;;;;;;;16.70;8.00;;;;;;;6.77;60.91;101310.46;106370;1254;60539;-87
2023/12/09 10:18:48;;;;;;;17.80;9.60;;;;;;;6.76;61.08;101307.77;106441;1253;72376;-83
2023/12/09 10:21:24;;;;;;;17.60;7.90;;;;;;;6.56;61.74;101302.43;106402;1256;67323;-84
2023/12/09 10:23:58;;;;;;;18.20;8.10;;;;;;;6.45;62.12;101303.05;106271;1254;71845;-83
2023/12/09 10:26:32;;;;;;;20.60;10.50;;;;;;;6.43;62.73;101301.74;106330;1256;60633;-84
2023/12/09 10:29:07;;;;;;;20.20;9.90;;;;;;;6.44;62.80;101302.48;106408;1256;60405;-84
2023/12/09 10:31:41;;;;;;;20.90;10.20;;;;;;;6.55;62.70;101296.41;106303;1254;75755;-83
2023/12/09 10:34:15;;;;;;;21.40;10.30;;;;;;;6.62;62.55;101291.32;106240;1254;67092;-83
2023/12/09 10:36:49;;;;;;;19.00;9.10;;;;;;;6.76;62.63;101288.70;106323;1254;73229;-83
2023/12/09 10:39:23;;;;;;;18.80;8.40;;;;;;;6.84;61.93;101284.17;106508;1254;60330;-84
2023/12/09 10:41:57;;;;;;;14.60;8.30;;;;;;;6.82;61.43;101282.71;106259;1259;60403;-83
2023/12/09 10:44:31;;;;;;;20.10;10.40;;;;;;;6.86;61.59;101276.43;106323;1254;73170;-83
2023/12/09 10:47:05;;;;;;;20.50;9.80;;;;;;;6.90;61.25;101279.38;106389;1256;66257;-87
2023/12/09 10:49:39;;;;;;;16.30;9.60;;;;;;;6.89;60.54;101275.17;106324;1254;75041;-83
2023/12/09 10:52:13;;;;;;;17.30;9.60;;;;;;;6.83;60.37;101279.70;106743;1256;61418;-83
2023/12/09 10:54:47;;;;;;;19.10;9.80;;;;;;;6.87;60.00;101281.27;106371;1256;60339;-83
2023/12/09 10:57:23;;;;;;;15.00;7.80;;;;;;;6.90;60.03;101280.63;106541;1251;72593;-83
2023/12/09 10:59:57;;;;;;;16.20;9.30;;;;;;;7.01;59.47;101283.00;106545;1251;68698;-83
2023/12/09 11:02:31;;;;;;;16.90;8.50;;;;;;;6.92;59.78;101282.35;106379;1251;72679;-83
2023/12/09 11:05:09;;;;;;;20.10;9.70;;;;;;;6.90;60.67;101287.41;106357;1254;60389;-84
2023/12/09 11:07:46;;;;;;;21.60;11.30;;;;;;;6.92;60.64;101290.38;106471;1251;60316;-87
2023/12/09 11:10:20;;;;;;;20.40;10.50;;;;;;;6.84;59.97;101292.76;106632;1256;74390;-87
2023/12/09 11:12:54;;;;;;;17.80;10.10;;;;;;;6.74;59.78;101292.92;106343;1257;68354;-83
2023/12/09 11:15:33;;;;;;;21.70;9.30;;;;;;;6.76;59.99;101290.05;106423;1253;72770;-83
2023/12/09 11:18:11;;;;;;;20.30;10.60;;;;;;;6.87;60.14;101291.36;106248;1251;61158;-84
2023/12/09 11:20:46;;;;;;;17.20;9.60;;;;;;;6.95;59.21;101295.40;106489;1256;61137;-83
2023/12/09 11:23:20;;;;;;;17.60;9.10;;;;;;;6.86;59.39;101295.69;106376;1251;72581;-83
2023/12/09 11:25:54;;;;;;;18.70;9.40;;;;;;;6.81;59.59;101292.45;106397;1254;68491;-83
2023/12/09 11:28:28;;;;;;;15.90;7.10;;;;;;;6.83;60.13;101285.73;106720;1251;72688;-86
2023/12/09 11:31:02;;;;;;;15.10;7.80;;;;;;;6.89;59.63;101283.81;106582;1256;61227;-87
2023/12/09 11:33:36;;;;;;;16.70;7.80;;;;;;;6.95;59.07;101281.86;106394;1251;61313;-87
2023/12/09 11:36:10;;;;;;;14.70;8.00;;;;;;;6.89;58.45;101279.73;106339;1259;74590;-87
2023/12/09 11:38:44;;;;;;;15.30;7.40;;;;;;;6.91;58.53;101276.01;106920;1255;67140;-87
2023/12/09 11:41:18;;;;;;;17.20;8.10;;;;;;;6.92;58.90;101278.36;106698;1254;74289;-87
2023/12/09 11:43:52;;;;;;;17.20;8.80;;;;;;;6.90;58.99;101281.91;106420;1257;63144;-88
2023/12/09 11:46:25;;;;;;;14.50;8.00;;;;;;;6.84;59.50;101287.45;106579;1251;61462;-87
2023/12/09 11:49:00;;;;;;;14.50;7.80;;;;;;;6.83;59.33;101288.55;106980;1254;74730;-88
2023/12/09 11:51:35;;;;;;;15.70;7.70;;;;;;;6.86;59.19;101289.60;106449;1251;71018;-87
2023/12/09 11:54:09;;;;;;;14.30;7.80;;;;;;;6.81;59.01;101286.05;106364;1257;71409;-87
2023/12/09 11:56:43;;;;;;;17.90;8.00;;;;;;;6.67;59.34;101284.64;106430;1254;61297;-87
2023/12/09 11:59:17;;;;;;;16.90;8.30;;;;;;;6.66;59.61;101284.86;106621;1251;60481;-87
2023/12/09 12:01:51;;;;;;;16.20;7.80;;;;;;;6.56;60.07;101283.73;106503;1252;73370;-87
2023/12/09 12:04:32;;;;;;;13.70;7.70;;;;;;;6.56;60.48;101284.98;106393;1257;67044;-87
2023/12/09 12:07:08;;;;;;;17.80;8.30;;;;;;;6.50;60.49;101283.63;106460;1255;75046;-87
2023/12/09 12:09:42;;;;;;;16.50;8.40;;;;;;;6.45;60.54;101281.32;106338;1254;61240;-87
2023/12/09 12:12:17;;;;;;;27.50;12.00;;;;;;;6.36;61.16;101277.80;106632;1251;61366;-87
2023/12/09 12:14:52;;;;;;;23.10;9.80;;;;;;;6.32;61.49;101276.97;106315;1251;73398;-87
2023/12/09 12:17:28;;;;;;;30.70;11.50;;;;;;;6.25;61.45;101277.39;106430;1257;69224;-88
2023/12/09 12:20:05;;;;;;;61.10;22.00;;;;;;;6.26;61.61;101286.96;106661;1254;73317;-88
2023/12/09 12:22:42;;;;;;;31.90;13.50;;;;;;;6.23;61.93;101285.65;106317;1255;61272;-87
2023/12/09 12:25:16;;;;;;;21.30;10.10;;;;;;;6.27;61.71;101280.70;106516;1257;60064;-87
2023/12/09 12:27:50;;;;;;;19.90;8.30;;;;;;;6.31;60.66;101282.70;106465;1257;74657;-88
2023/12/09 12:30:23;;;;;;;20.50;9.40;;;;;;;6.14;60.81;101286.33;106733;1251;67101;-88
2023/12/09 12:32:57;;;;;;;15.80;8.30;;;;;;;6.10;61.00;101287.45;106357;1251;72985;-87
2023/12/09 12:35:32;;;;;;;18.60;9.20;;;;;;;6.06;61.03;101291.14;106625;1254;61330;-88
2023/12/09 12:38:06;;;;;;;11.40;6.60;;;;;;;6.05;61.39;101293.12;106531;1253;61257;-89
2023/12/09 12:40:40;;;;;;;19.00;8.60;;;;;;;6.04;61.29;101296.18;106279;1251;73789;-88
2023/12/09 12:43:17;;;;;;;17.20;8.60;;;;;;;6.10;61.42;101299.29;106698;1256;67445;-88
2023/12/09 12:45:52;;;;;;;24.00;11.50;;;;;;;6.10;61.43;101303.41;106406;1252;71211;-87
2023/12/09 12:48:26;;;;;;;20.00;10.00;;;;;;;6.07;61.67;101309.66;106442;1253;61365;-88
2023/12/09 12:51:00;;;;;;;15.70;7.80;;;;;;;6.06;61.31;101314.86;106636;1257;61266;-88
2023/12/09 12:53:34;;;;;;;29.50;16.70;;;;;;;6.01;61.33;101319.89;106509;1257;74585;-88
2023/12/09 12:56:02;;;;;;;39.00;23.80;;;;;;;6.04;61.13;101316.58;107026;1257;67843;-88
2023/12/09 12:58:33;;;;;;;20.70;12.00;;;;;;;6.02;61.24;101319.67;106504;1253;71377;-84
2023/12/09 13:01:07;;;;;;;21.60;10.60;;;;;;;6.00;61.47;101315.09;106475;1254;61327;-84
2023/12/09 13:03:41;;;;;;;18.10;9.20;;;;;;;6.02;61.51;101317.79;106534;1256;59960;-84
2023/12/09 13:06:15;;;;;;;16.20;7.70;;;;;;;6.05;61.27;101319.77;106406;1259;74624;-84
2023/12/09 13:08:49;;;;;;;14.40;7.20;;;;;;;6.11;61.09;101328.11;106465;1257;70959;-84
2023/12/09 13:11:22;;;;;;;16.00;7.50;;;;;;;6.13;60.90;101321.45;106464;1251;74147;-84
2023/12/09 13:13:57;;;;;;;14.50;8.00;;;;;;;6.17;60.50;101326.12;106783;1251;61200;-84
2023/12/09 13:16:31;;;;;;;15.40;7.80;;;;;;;6.13;60.71;101324.12;106657;1258;61350;-84
2023/12/09 13:19:05;;;;;;;14.70;7.80;;;;;;;6.07;61.01;101324.31;106489;1254;74736;-84
2023/12/09 13:21:38;;;;;;;16.90;9.60;;;;;;;6.12;61.00;101332.64;106415;1257;68908;-84
2023/12/09 13:24:13;;;;;;;15.20;8.10;;;;;;;6.19;60.60;101328.41;106495;1251;72454;-83
2023/12/09 13:26:47;;;;;;;13.30;7.90;;;;;;;6.17;60.28;101336.55;106474;1259;61313;-83
2023/12/09 13:29:21;;;;;;;14.20;7.30;;;;;;;6.15;60.15;101335.95;106474;1251;60016;-84
2023/12/09 13:31:55;;;;;;;13.90;6.30;;;;;;;6.16;59.86;101336.36;106522;1257;74196;-83
2023/12/09 13:34:28;;;;;;;15.10;7.90;;;;;;;6.17;59.41;101336.18;106498;1256;66808;-84
2023/12/09 13:37:02;;;;;;;13.10;7.40;;;;;;;6.17;59.51;101335.73;106568;1254;71395;-84
2023/12/09 13:39:36;;;;;;;14.50;7.70;;;;;;;6.17;59.38;101335.18;106351;1254;61212;-84
2023/12/09 13:42:12;;;;;;;13.90;7.30;;;;;;;6.15;59.03;101336.33;106427;1252;61480;-84
2023/12/09 13:44:46;;;;;;;14.90;7.00;;;;;;;6.12;59.17;101335.02;106440;1251;73479;-84
2023/12/09 13:47:20;;;;;;;15.20;7.90;;;;;;;6.07;59.44;101333.88;106510;1256;68552;-84
2023/12/09 13:49:54;;;;;;;13.40;7.10;;;;;;;6.01;59.33;101338.16;106308;1260;73127;-84
2023/12/09 13:52:31;;;;;;;13.60;7.00;;;;;;;5.92;59.99;101340.16;106608;1256;61346;-84
2023/12/09 13:55:06;;;;;;;11.30;6.30;;;;;;;5.95;59.79;101344.61;106449;1251;61692;-84
2023/12/09 13:57:40;;;;;;;15.10;7.70;;;;;;;5.98;59.90;101342.75;106742;1257;74650;-84
2023/12/09 14:00:16;;;;;;;15.70;8.40;;;;;;;5.93;59.94;101342.30;106385;1251;68655;-84
2023/12/09 14:02:50;;;;;;;15.40;8.10;;;;;;;5.97;59.84;101340.89;106637;1254;72705;-83
2023/12/09 14:05:24;;;;;;;14.70;7.60;;;;;;;5.90;59.57;101337.48;106445;1258;61243;-83
2023/12/09 14:07:58;;;;;;;14.90;7.50;;;;;;;5.69;60.44;101335.83;106647;1257;61119;-84
2023/12/09 14:10:32;;;;;;;11.90;6.60;;;;;;;5.76;60.82;101334.59;106558;1251;73332;-84
2023/12/09 14:13:06;;;;;;;12.00;7.20;;;;;;;5.79;60.46;101334.81;106490;1257;68774;-83
2023/12/09 14:15:42;;;;;;;15.80;6.40;;;;;;;5.77;60.08;101333.15;106404;1254;72683;-83
2023/12/09 14:18:15;;;;;;;11.10;6.20;;;;;;;5.78;60.39;101333.27;106619;1263;61211;-84
2023/12/09 14:20:49;;;;;;;15.20;7.30;;;;;;;5.71;60.36;101329.92;106327;1257;60204;-84
2023/12/09 14:23:27;;;;;;;14.80;7.60;;;;;;;5.59;61.04;101333.14;106476;1252;73573;-84
2023/12/09 14:26:01;;;;;;;17.80;8.70;;;;;;;5.61;61.16;101334.89;106574;1257;68373;-83
2023/12/09 14:28:35;;;;;;;17.50;8.30;;;;;;;5.60;61.05;101333.13;106784;1255;74905;-83
2023/12/09 14:31:10;;;;;;;13.40;6.90;;;;;;;5.62;61.01;101334.16;106579;1257;61266;-84
2023/12/09 14:33:44;;;;;;;14.10;7.30;;;;;;;5.65;60.93;101328.75;106690;1253;61216;-87
2023/12/09 14:36:18;;;;;;;16.30;7.80;;;;;;;5.79;60.26;101330.17;106547;1251;75202;-83
2023/12/09 14:38:52;;;;;;;13.30;6.90;;;;;;;5.78;60.22;101330.17;106932;1254;69124;-83
2023/12/09 14:41:26;;;;;;;10.60;6.30;;;;;;;5.70;60.49;101332.66;106356;1259;72770;-83
2023/12/09 14:44:00;;;;;;;13.70;6.80;;;;;;;5.57;60.84;101331.08;106503;1257;61307;-83
2023/12/09 14:46:41;;;;;;;17.60;9.60;;;;;;;5.60;60.97;101326.66;106586;1251;61207;-82
2023/12/09 14:49:15;;;;;;;14.90;7.70;;;;;;;5.58;60.94;101324.35;106806;1251;74628;-81
2023/12/09 14:51:50;;;;;;;17.10;8.50;;;;;;;5.66;60.82;101324.02;106645;1256;67443;-81
2023/12/09 14:54:24;;;;;;;16.00;8.50;;;;;;;5.63;61.04;101322.64;106504;1251;71452;-82
2023/12/09 14:56:58;;;;;;;16.50;9.10;;;;;;;5.55;61.30;101324.42;106536;1254;61166;-82
2023/12/09 14:59:32;;;;;;;12.70;7.20;;;;;;;5.62;61.09;101318.60;106662;1256;61338;-80
2023/12/09 15:02:06;;;;;;;19.10;9.50;;;;;;;5.48;61.60;101319.59;106982;1257;74681;-81
2023/12/09 15:04:39;;;;;;;13.90;6.90;;;;;;;5.35;62.21;101324.91;106616;1257;67143;-81
2023/12/09 15:07:13;;;;;;;13.90;7.40;;;;;;;5.46;61.83;101317.80;106418;1253;71301;-79
2023/12/09 15:09:47;;;;;;;15.50;7.80;;;;;;;5.39;62.04;101317.41;106321;1251;61214;-80
2023/12/09 15:12:21;;;;;;;15.20;7.50;;;;;;;5.38;62.41;101326.64;106645;1256;61253;-80
2023/12/09 15:14:56;;;;;;;17.80;9.30;;;;;;;5.34;62.69;101327.84;106296;1252;75237;-81
2023/12/09 15:17:31;;;;;;;22.70;12.10;;;;;;;5.40;62.47;101327.25;106443;1251;68857;-81
2023/12/09 15:20:11;;;;;;;18.10;9.40;;;;;;;5.44;62.31;101324.50;106368;1251;74923;-80
2023/12/09 15:22:45;;;;;;;16.80;7.70;;;;;;;5.28;63.24;101322.57;106587;1252;61342;-81
2023/12/09 15:25:22;;;;;;;12.30;7.10;;;;;;;5.12;63.71;101319.83;106305;1252;61410;-79
2023/12/09 15:27:56;;;;;;;19.90;9.70;;;;;;;5.17;63.93;101313.36;106411;1251;73374;-79
2023/12/09 15:30:30;;;;;;;16.40;7.80;;;;;;;5.29;63.15;101307.60;106455;1257;71059;-79
2023/12/09 15:33:04;;;;;;;17.70;8.60;;;;;;;5.35;62.62;101297.44;106372;1257;73843;-79
2023/12/09 15:35:38;;;;;;;22.60;12.70;;;;;;;5.15;63.28;101301.87;106409;1256;62456;-79
2023/12/09 15:38:13;;;;;;;14.90;7.70;;;;;;;5.20;63.67;101296.74;106366;1256;61241;-81
2023/12/09 15:40:47;;;;;;;15.60;7.80;;;;;;;5.28;63.14;101298.09;106262;1255;75740;-81
2023/12/09 15:43:20;;;;;;;14.70;7.10;;;;;;;5.28;62.94;101292.17;106486;1257;67425;-81
2023/12/09 15:45:54;;;;;;;12.30;6.40;;;;;;;5.18;63.37;101290.77;106362;1253;71466;-81
2023/12/09 15:48:29;;;;;;;12.60;6.20;;;;;;;5.17;63.58;101287.14;106477;1255;61107;-81
2023/12/09 15:51:06;;;;;;;13.00;7.10;;;;;;;5.19;63.48;101292.13;106445;1256;61142;-81
2023/12/09 15:53:40;;;;;;;17.60;8.70;;;;;;;5.20;63.31;101289.45;107116;1251;73492;-81
2023/12/09 15:56:14;;;;;;;19.90;9.90;;;;;;;5.14;63.51;101290.30;106825;1251;68885;-80
2023/12/09 15:58:48;;;;;;;18.20;8.90;;;;;;;5.10;63.91;101291.04;106665;1256;72634;-81
2023/12/09 16:01:21;;;;;;;17.90;11.20;;;;;;;5.14;64.01;101293.98;106493;1254;62313;-79
2023/12/09 16:03:55;;;;;;;18.80;9.90;;;;;;;5.14;63.49;101296.52;106479;1256;61234;-79
2023/12/09 16:06:32;;;;;;;16.60;8.90;;;;;;;5.15;63.56;101303.70;106304;1251;76634;-81
2023/12/09 16:09:06;;;;;;;17.90;8.60;;;;;;;5.20;63.48;101300.50;106460;1257;70617;-81
2023/12/09 16:11:40;;;;;;;16.10;8.30;;;;;;;5.22;63.43;101305.52;106546;1256;73530;-81
2023/12/09 16:14:14;;;;;;;20.10;10.40;;;;;;;5.17;63.11;101306.16;106472;1258;61298;-81
2023/12/09 16:16:48;;;;;;;18.80;9.80;;;;;;;4.92;64.48;101307.26;106357;1257;61336;-81
2023/12/09 16:19:22;;;;;;;21.30;10.90;;;;;;;4.83;65.06;101307.07;106578;1251;75708;-79
2023/12/09 16:21:56;;;;;;;18.80;9.70;;;;;;;4.88;64.90;101306.41;106440;1256;67256;-79
2023/12/09 16:24:30;;;;;;;16.70;9.20;;;;;;;4.79;65.67;101303.18;106436;1257;72763;-79
2023/12/09 16:27:03;;;;;;;18.60;9.00;;;;;;;4.69;66.09;101302.71;106434;1254;61337;-79
2023/12/09 16:29:37;;;;;;;18.50;9.70;;;;;;;4.63;66.63;101303.21;106333;1251;60098;-80
2023/12/09 16:32:11;;;;;;;22.20;10.60;;;;;;;4.64;66.81;101296.84;106279;1253;76516;-80
2023/12/09 16:34:45;;;;;;;21.80;11.40;;;;;;;4.73;66.51;101296.02;106582;1256;67424;-80
2023/12/09 16:37:21;;;;;;;21.30;11.50;;;;;;;4.82;65.87;101289.74;106371;1251;74956;-80
2023/12/09 16:39:55;;;;;;;23.30;12.00;;;;;;;4.86;65.80;101291.02;106253;1251;61349;-80
2023/12/09 16:42:29;;;;;;;24.00;11.80;;;;;;;4.91;65.70;101290.84;106403;1251;61381;-79
2023/12/09 16:45:04;;;;;;;21.30;11.10;;;;;;;4.92;65.51;101286.13;106531;1257;76703;-80
2023/12/09 16:47:39;;;;;;;27.20;14.20;;;;;;;5.00;65.20;101287.89;106599;1257;70142;-80
2023/12/09 16:50:13;;;;;;;22.80;12.00;;;;;;;4.89;65.52;101291.77;106325;1254;74995;-80
2023/12/09 16:52:48;;;;;;;23.80;11.60;;;;;;;4.85;65.87;101289.84;106390;1256;61722;-80
2023/12/09 16:55:22;;;;;;;19.50;10.30;;;;;;;4.85;65.96;101292.39;106662;1251;62362;-80
2023/12/09 16:57:56;;;;;;;20.80;11.10;;;;;;;4.76;66.18;101290.41;106366;1251;76824;-80
2023/12/09 17:00:30;;;;;;;15.40;8.80;;;;;;;4.84;66.18;101289.81;106386;1254;70025;-80
2023/12/09 17:03:04;;;;;;;17.40;8.90;;;;;;;4.82;66.03;101285.96;106299;1254;72762;-80
2023/12/09 17:05:38;;;;;;;17.30;8.60;;;;;;;4.82;65.98;101283.34;106662;1254;61298;-79
2023/12/09 17:08:12;;;;;;;16.80;9.20;;;;;;;4.82;65.77;101284.21;106501;1256;61268;-80
2023/12/09 17:10:46;;;;;;;19.20;9.80;;;;;;;4.84;66.12;101287.19;106203;1258;77136;-80
2023/12/09 17:13:20;;;;;;;18.50;8.80;;;;;;;4.83;66.13;101286.11;106381;1251;70467;-79
2023/12/09 17:15:54;;;;;;;20.20;8.10;;;;;;;4.92;65.91;101283.62;106318;1254;74174;-81
2023/12/09 17:18:27;;;;;;;17.50;8.60;;;;;;;5.08;64.91;101284.02;106621;1251;61705;-81
2023/12/09 17:21:02;;;;;;;16.30;8.50;;;;;;;5.14;64.64;101283.05;106464;1251;61357;-81
2023/12/09 17:23:36;;;;;;;17.10;8.90;;;;;;;5.23;63.93;101286.42;106462;1251;74569;-82
2023/12/09 17:26:14;;;;;;;17.20;9.00;;;;;;;5.25;63.38;101285.70;106359;1256;71081;-80
2023/12/09 17:28:47;;;;;;;18.30;9.40;;;;;;;5.22;63.53;101285.77;106383;1254;72672;-80
2023/12/09 17:31:22;;;;;;;15.80;9.00;;;;;;;5.20;63.45;101281.09;106551;1251;61333;-79
2023/12/09 17:33:56;;;;;;;19.70;9.50;;;;;;;5.00;64.62;101283.34;106381;1251;62348;-80
2023/12/09 17:36:30;;;;;;;15.70;8.20;;;;;;;4.71;66.21;101283.86;106297;1251;74791;-80
2023/12/09 17:39:06;;;;;;;17.70;8.80;;;;;;;4.62;67.23;101283.35;106423;1254;68760;-80
2023/12/09 17:41:40;;;;;;;18.50;10.40;;;;;;;4.56;67.77;101287.64;106311;1257;74846;-80
2023/12/09 17:44:13;;;;;;;19.80;10.70;;;;;;;4.51;68.22;101282.81;106399;1254;61186;-80
2023/12/09 17:46:47;;;;;;;20.60;11.10;;;;;;;4.48;68.50;101285.86;106569;1251;62283;-81
2023/12/09 17:49:21;;;;;;;19.80;10.60;;;;;;;4.62;68.16;101285.89;106397;1251;73579;-81
2023/12/09 17:51:55;;;;;;;22.30;10.80;;;;;;;4.64;67.99;101285.47;106712;1257;70537;-81
2023/12/09 17:54:29;;;;;;;27.30;12.40;;;;;;;4.67;67.94;101285.79;106340;1257;73599;-81
2023/12/09 17:57:04;;;;;;;24.30;11.60;;;;;;;4.79;67.44;101288.02;106376;1254;61236;-82
2023/12/09 17:59:38;;;;;;;21.10;9.70;;;;;;;4.76;67.27;101285.88;106257;1259;61237;-81
2023/12/09 18:02:12;;;;;;;22.60;11.40;;;;;;;4.66;67.91;101282.83;106338;1254;75778;-81
2023/12/09 18:04:45;;;;;;;23.10;11.90;;;;;;;4.73;67.68;101282.35;106394;1254;67291;-81
2023/12/09 18:07:20;;;;;;;29.60;13.60;;;;;;;4.87;67.18;101281.53;106314;1251;74645;-81
2023/12/09 18:09:54;;;;;;;33.90;17.20;;;;;;;4.96;66.54;101279.23;106330;1254;61310;-80
2023/12/09 18:12:28;;;;;;;29.80;15.90;;;;;;;4.93;66.50;101273.83;106331;1251;62638;-80
2023/12/09 18:15:02;;;;;;;32.60;15.50;;;;;;;4.98;66.75;101278.29;106357;1256;75874;-80
2023/12/09 18:17:37;;;;;;;33.30;15.70;;;;;;;4.97;66.38;101276.79;106318;1251;68928;-80
2023/12/09 18:20:11;;;;;;;26.70;12.90;;;;;;;4.87;67.25;101268.59;106338;1257;73143;-80
2023/12/09 18:22:45;;;;;;;21.50;11.20;;;;;;;4.93;67.08;101267.45;106768;1257;61295;-81
2023/12/09 18:25:20;;;;;;;20.20;11.10;;;;;;;4.88;67.20;101264.91;106412;1251;62278;-81
2023/12/09 18:27:53;;;;;;;21.00;11.30;;;;;;;4.85;67.75;101266.89;106522;1253;73450;-80
2023/12/09 18:30:27;;;;;;;19.20;10.30;;;;;;;4.90;67.60;101265.52;106393;1251;70259;-80
2023/12/09 18:33:01;;;;;;;24.40;12.50;;;;;;;4.90;67.64;101266.11;106519;1251;73497;-80
2023/12/09 18:35:35;;;;;;;22.30;11.40;;;;;;;4.93;67.33;101267.37;106253;1257;61208;-80
2023/12/09 18:38:09;;;;;;;23.70;11.80;;;;;;;4.95;67.34;101263.41;106454;1257;61189;-80
2023/12/09 18:40:43;;;;;;;20.30;10.10;;;;;;;4.99;67.16;101267.69;106270;1260;76628;-80
2023/12/09 18:43:17;;;;;;;22.20;11.20;;;;;;;4.97;67.65;101258.32;106462;1252;71033;-80
2023/12/09 18:45:52;;;;;;;20.80;10.50;;;;;;;5.01;67.24;101249.17;106500;1254;72722;-80
2023/12/09 18:48:26;;;;;;;20.40;10.50;;;;;;;5.10;66.60;101245.77;106244;1251;61404;-80
2023/12/09 18:51:01;;;;;;;22.40;10.90;;;;;;;5.03;66.92;101244.31;106407;1253;61284;-79
2023/12/09 18:53:36;;;;;;;23.40;11.50;;;;;;;4.98;67.32;101237.73;106223;1259;76885;-79
2023/12/09 18:56:09;;;;;;;25.10;13.90;;;;;;;4.94;67.45;101231.81;106390;1251;69753;-79
2023/12/09 18:58:43;;;;;;;33.30;16.40;;;;;;;4.90;67.88;101232.05;106349;1254;73833;-80
2023/12/09 19:01:17;;;;;;;31.60;15.20;;;;;;;4.92;68.12;101231.63;106505;1256;61208;-80
2023/12/09 19:03:51;;;;;;;27.20;12.60;;;;;;;4.87;68.34;101231.45;106674;1251;61956;-80
2023/12/09 19:06:26;;;;;;;20.50;9.80;;;;;;;4.87;68.16;101222.84;106314;1252;73434;-81
2023/12/09 19:09:00;;;;;;;20.40;8.90;;;;;;;4.85;68.33;101222.31;106600;1257;67325;-80
2023/12/09 19:11:34;;;;;;;21.00;10.30;;;;;;;4.83;68.24;101223.17;106349;1253;71408;-79
2023/12/09 19:14:08;;;;;;;21.80;8.70;;;;;;;4.85;68.21;101219.10;106562;1253;61294;-79
2023/12/09 19:16:41;;;;;;;20.20;10.40;;;;;;;4.82;68.41;101214.80;106365;1251;61413;-79
2023/12/09 19:19:22;;;;;;;;;;;;;;;4.79;68.57;101212.91;106427;1251;75197;-79
2023/12/09 19:21:57;;;;;;;;;;;;;;;4.76;69.02;101212.23;106456;1257;68457;-79
2023/12/09 19:24:30;;;;;;;;;;;;;;;4.76;69.26;101211.15;106343;1254;74696;-79
2023/12/09 19:27:04;;;;;;;;;;;;;;;4.77;69.07;101205.97;106305;1254;61490;-79
2023/12/09 19:29:39;;;;;;;;;;;;;;;4.84;68.69;101205.41;106308;1251;61334;-81
2023/12/09 19:32:14;;;;;;;;;;;;;;;4.92;68.31;101212.40;106426;1251;75817;-78
2023/12/09 19:34:48;;;;;;;;;;;;;;;4.95;68.14;101216.22;106428;1254;66513;-79
2023/12/09 19:37:22;;;;;;;;;;;;;;;4.93;68.20;101213.83;106447;1251;71421;-80
2023/12/09 19:39:56;;;;;;;;;;;;;;;4.97;68.24;101216.87;106430;1253;61282;-80
2023/12/09 19:42:30;;;;;;;;;;;;;;;5.10;67.13;101222.44;106501;1251;61337;-80
2023/12/09 19:45:04;;;;;;;;;;;;;;;5.13;66.84;101218.12;106717;1251;74629;-82
2023/12/09 19:47:40;;;;;;;;;;;;;;;5.09;66.66;101212.98;106824;1251;69788;-83
2023/12/09 19:50:14;;;;;;;;;;;;;;;5.11;66.60;101210.27;106586;1254;73771;-83
2023/12/09 19:52:47;;;;;;;;;;;;;;;5.15;66.40;101207.55;106614;1254;61254;-84